createdAt,value
2023-01-02T00:00:23.575Z,99571.84
2023-01-02T00:02:50.748Z,99582.28
2023-01-02T00:05:18.030Z,99578.94
2023-01-02T00:07:44.974Z,99576.67
2023-01-02T00:10:11.915Z,99573.15
2023-01-02T00:12:38.815Z,99575.52
2023-01-02T00:15:06.474Z,99577.39
2023-01-02T00:17:33.438Z,99575.80
2023-01-02T00:20:00.830Z,99582.61
2023-01-02T00:22:27.873Z,99584.34
2023-01-02T00:24:54.852Z,99584.75
2023-01-02T00:27:21.709Z,99583.53
2023-01-02T00:29:48.592Z,99578.80
2023-01-02T00:32:15.655Z,99579.77
2023-01-02T00:34:42.594Z,99580.26
2023-01-02T00:37:09.551Z,99581.80
2023-01-02T00:39:36.482Z,99590.23
2023-01-02T00:42:04.563Z,99592.86
2023-01-02T00:44:31.512Z,99594.85
2023-01-02T00:46:58.653Z,99597.90
2023-01-02T00:49:26.350Z,99593.67
2023-01-02T00:51:53.256Z,99591.73
2023-01-02T00:54:20.227Z,99597.02
2023-01-02T00:56:47.253Z,99609.92
2023-01-02T00:59:14.235Z,99610.52
2023-01-02T01:01:41.417Z,99608.83
2023-01-02T01:04:08.908Z,99608.71
2023-01-02T01:06:35.952Z,99603.88
2023-01-02T01:09:03.012Z,99605.03
2023-01-02T01:11:30.075Z,99604.31
2023-01-02T01:13:57.707Z,99603.51
2023-01-02T01:16:25.902Z,99601.70
2023-01-02T01:18:56.819Z,99597.33
2023-01-02T01:21:23.763Z,99599.73
2023-01-02T01:23:52.326Z,99597.73
2023-01-02T01:26:19.404Z,99592.77
2023-01-02T01:28:46.439Z,99593.96
2023-01-02T01:31:15.092Z,99588.30
2023-01-02T01:33:42.308Z,99592.98
2023-01-02T01:36:11.271Z,99592.48
2023-01-02T01:38:38.251Z,99593.13
2023-01-02T01:41:05.817Z,99590.79
2023-01-02T01:43:35.993Z,99595.30
2023-01-02T01:46:03.022Z,99594.00
2023-01-02T01:48:30.196Z,99600.52
2023-01-02T01:50:57.254Z,99600.91
2023-01-02T01:53:24.919Z,99602.70
2023-01-02T01:55:53.794Z,99604.83
2023-01-02T01:58:22.911Z,99605.34
2023-01-02T02:00:49.867Z,99604.28
2023-01-02T02:03:20.539Z,99603.31
2023-01-02T02:05:47.433Z,99600.55
2023-01-02T02:08:27.191Z,99603.44
2023-01-02T02:10:55.246Z,99601.75
2023-01-02T02:13:22.179Z,99603.83
2023-01-02T02:16:16.826Z,99602.30
2023-01-02T02:19:02.953Z,99603.05
2023-01-02T02:21:48.807Z,99600.66
2023-01-02T02:24:31.088Z,99603.31
2023-01-02T02:27:23.343Z,99605.84
2023-01-02T02:30:19.839Z,99609.64
2023-01-02T02:32:56.090Z,99606.41
2023-01-02T02:35:41.872Z,99608.42
2023-01-02T02:38:48.447Z,99608.50
2023-01-02T02:41:24.585Z,99608.83
2023-01-02T02:43:56.062Z,99611.48
2023-01-02T02:46:28.470Z,99616.84
2023-01-02T02:49:04.507Z,99619.10
2023-01-02T02:51:43.640Z,99619.39
2023-01-02T02:54:27.568Z,99616.63
2023-01-02T02:56:54.611Z,99616.73
2023-01-02T02:59:21.680Z,99617.30
2023-01-02T03:01:48.832Z,99616.52
2023-01-02T03:04:18.575Z,99620.16
2023-01-02T03:07:10.763Z,99619.23
2023-01-02T03:09:57.385Z,99619.14
2023-01-02T03:12:24.286Z,99614.90
2023-01-02T03:15:17.577Z,99612.27
2023-01-02T03:18:03.696Z,99616.05
2023-01-02T03:20:38.463Z,99611.09
2023-01-02T03:23:07.482Z,99611.17
2023-01-02T03:25:34.963Z,99612.25
2023-01-02T03:28:01.881Z,99611.14
2023-01-02T03:30:28.813Z,99612.08
2023-01-02T03:33:03.079Z,99610.77
2023-01-02T03:35:34.528Z,99612.68
2023-01-02T03:38:01.430Z,99611.61
2023-01-02T03:40:31.378Z,99612.77
2023-01-02T03:43:03.326Z,99615.46
2023-01-02T03:45:35.173Z,99618.03
2023-01-02T03:48:21.996Z,99621.38
2023-01-02T03:50:51.601Z,99627.48
2023-01-02T03:53:18.846Z,99628.38
2023-01-02T03:55:59.938Z,99628.80
2023-01-02T03:59:15.509Z,99624.98
2023-01-02T04:01:48.337Z,99628.13
2023-01-02T04:04:33.996Z,99627.91
2023-01-02T04:07:02.248Z,99625.13
2023-01-02T04:09:30.523Z,99633.98
2023-01-02T04:12:01.139Z,99630.95
2023-01-02T04:14:31.241Z,99632.45
2023-01-02T04:16:59.073Z,99643.62
2023-01-02T04:19:32.943Z,99640.56
2023-01-02T04:22:02.142Z,99642.59
2023-01-02T04:24:33.968Z,99645.17
2023-01-02T04:27:04.588Z,99649.45
2023-01-02T04:29:31.589Z,99651.14
2023-01-02T04:32:03.238Z,99657.11
2023-01-02T04:34:31.729Z,99664.39
2023-01-02T04:36:59.280Z,99664.79
2023-01-02T04:39:26.591Z,99673.29
2023-01-02T04:41:53.582Z,99671.52
2023-01-02T04:44:20.582Z,99675.36
2023-01-02T04:46:47.578Z,99675.16
2023-01-02T04:49:14.721Z,99667.71
2023-01-02T04:51:41.693Z,99667.98
2023-01-02T04:54:13.528Z,99672.73
2023-01-02T04:56:40.475Z,99673.48
2023-01-02T04:59:07.348Z,99669.91
2023-01-02T05:01:34.316Z,99669.52
2023-01-02T05:04:01.512Z,99673.98
2023-01-02T05:06:28.551Z,99674.78
2023-01-02T05:08:55.502Z,99672.88
2023-01-02T05:11:22.448Z,99672.63
2023-01-02T05:13:49.476Z,99671.52
2023-01-02T05:16:16.692Z,99669.02
2023-01-02T05:18:43.800Z,99670.18
2023-01-02T05:21:31.033Z,99677.75
2023-01-02T05:23:59.605Z,99684.25
2023-01-02T05:26:26.644Z,99687.06
2023-01-02T05:28:54.402Z,99693.01
2023-01-02T05:31:21.489Z,99706.66
2023-01-02T05:33:55.272Z,99712.44
2023-01-02T05:36:23.027Z,99713.70
2023-01-02T05:38:50.177Z,99715.69
2023-01-02T05:41:17.422Z,99720.67
2023-01-02T05:43:44.353Z,99725.70
2023-01-02T05:46:13.268Z,99724.63
2023-01-02T05:48:40.734Z,99727.77
2023-01-02T05:51:09.604Z,99728.55
2023-01-02T05:53:36.862Z,99731.61
2023-01-02T05:56:11.901Z,99730.41
2023-01-02T05:58:40.161Z,99730.79
2023-01-02T06:01:09.079Z,99729.71
2023-01-02T06:03:36.248Z,99728.45
2023-01-02T06:06:10.690Z,99726.21
2023-01-02T06:08:38.206Z,99727.20
2023-01-02T06:11:05.744Z,99726.70
2023-01-02T06:13:33.817Z,99726.86
2023-01-02T06:16:01.198Z,99727.70
2023-01-02T06:18:28.932Z,99726.81
2023-01-02T06:21:03.123Z,99724.30
2023-01-02T06:23:30.314Z,99721.58
2023-01-02T06:26:06.158Z,99727.17
2023-01-02T06:28:33.295Z,99729.36
2023-01-02T06:31:11.901Z,99729.52
2023-01-02T06:33:38.964Z,99733.91
2023-01-02T06:36:07.040Z,99732.54
2023-01-02T06:38:34.624Z,99736.84
2023-01-02T06:41:02.530Z,99736.84
2023-01-02T06:43:29.917Z,99737.55
2023-01-02T06:45:58.749Z,99735.56
2023-01-02T06:48:25.861Z,99738.93
2023-01-02T06:50:52.900Z,99744.28
2023-01-02T06:53:19.848Z,99747.23
2023-01-02T06:55:51.846Z,99749.75
2023-01-02T06:58:19.785Z,99743.45
2023-01-02T07:00:47.265Z,99743.75
2023-01-02T07:03:14.525Z,99742.32
2023-01-02T07:05:41.749Z,99741.64
2023-01-02T07:08:09.105Z,99740.18
2023-01-02T07:10:36.256Z,99737.55
2023-01-02T07:13:03.397Z,99739.41
2023-01-02T07:15:30.451Z,99741.41
2023-01-02T07:17:57.381Z,99737.10
2023-01-02T07:20:24.432Z,99732.12
2023-01-02T07:22:54.870Z,99726.17
2023-01-02T07:25:22.011Z,99721.41
2023-01-02T07:27:48.926Z,99722.23
2023-01-02T07:30:15.999Z,99721.56
2023-01-02T07:32:43.683Z,99725.41
2023-01-02T07:35:11.200Z,99725.88
2023-01-02T07:37:38.391Z,99727.51
2023-01-02T07:40:06.271Z,99732.85
2023-01-02T07:42:33.299Z,99733.67
2023-01-02T07:45:00.200Z,99732.80
2023-01-02T07:47:27.183Z,99730.40
2023-01-02T07:49:54.286Z,99731.08
2023-01-02T07:52:21.300Z,99731.95
2023-01-02T07:54:48.321Z,99733.89
2023-01-02T07:57:15.216Z,99739.59
2023-01-02T07:59:45.249Z,99732.34
2023-01-02T08:02:12.473Z,99737.56
2023-01-02T08:04:39.493Z,99742.14
2023-01-02T08:07:06.524Z,99746.77
2023-01-02T08:09:33.915Z,99743.89
2023-01-02T08:12:00.822Z,99750.17
2023-01-02T08:14:27.977Z,99752.92
2023-01-02T08:16:54.984Z,99749.58
2023-01-02T08:19:22.066Z,99745.31
2023-01-02T08:21:49.070Z,99740.85
2023-01-02T08:24:15.957Z,99741.59
2023-01-02T08:26:43.003Z,99745.17
2023-01-02T08:29:10.055Z,99754.49
2023-01-02T08:31:43.379Z,99755.38
2023-01-02T08:34:14.731Z,99745.48
2023-01-02T08:36:42.256Z,99750.69
2023-01-02T08:39:09.401Z,99753.76
2023-01-02T08:41:37.962Z,99761.42
2023-01-02T08:44:05.233Z,99759.69
2023-01-02T08:46:38.419Z,99758.58
2023-01-02T08:49:09.367Z,99758.73
2023-01-02T08:51:36.421Z,99758.61
2023-01-02T08:54:03.444Z,99765.20
2023-01-02T08:56:31.785Z,99767.47
2023-01-02T08:59:02.460Z,99764.92
2023-01-02T09:01:30.897Z,99768.27
2023-01-02T09:03:58.345Z,99767.81
2023-01-02T09:06:27.297Z,99771.52
2023-01-02T09:08:55.923Z,99773.79
2023-01-02T09:11:27.563Z,99772.76
2023-01-02T09:13:55.095Z,99768.09
2023-01-02T09:16:22.655Z,99769.11
2023-01-02T09:18:49.712Z,99764.15
2023-01-02T09:21:16.759Z,99759.05
2023-01-02T09:23:43.752Z,99754.20
2023-01-02T09:26:11.563Z,99754.20
2023-01-02T09:28:38.614Z,99746.48
2023-01-02T09:31:11.844Z,99739.55
2023-01-02T09:33:40.693Z,99733.44
2023-01-02T09:36:08.974Z,99722.52
2023-01-02T09:38:36.152Z,99727.39
2023-01-02T09:41:11.162Z,99726.52
2023-01-02T09:43:41.598Z,99723.01
2023-01-02T09:46:10.714Z,99720.58
2023-01-02T09:48:37.743Z,99717.10
2023-01-02T09:51:07.767Z,99716.41
2023-01-02T09:53:35.320Z,99709.96
2023-01-02T09:56:10.945Z,99701.34
2023-01-02T09:58:50.591Z,99697.25
2023-01-02T10:01:51.617Z,99686.13
2023-01-02T10:04:49.921Z,99677.09
2023-01-02T10:07:31.601Z,99670.90
2023-01-02T10:10:14.017Z,99670.03
2023-01-02T10:13:00.308Z,99666.90
2023-01-02T10:15:28.172Z,99664.63
2023-01-02T10:17:59.024Z,99661.29
2023-01-02T10:20:40.400Z,99653.64
2023-01-02T10:23:10.402Z,99650.95
2023-01-02T10:25:40.254Z,99653.61
2023-01-02T10:28:28.339Z,99657.90
2023-01-02T10:31:07.653Z,99653.77
2023-01-02T10:34:00.462Z,99651.98
2023-01-02T10:36:33.158Z,99651.55
2023-01-02T10:39:05.407Z,99642.90
2023-01-02T10:41:32.346Z,99644.69
2023-01-02T10:44:04.213Z,99648.79
2023-01-02T10:46:36.094Z,99643.54
2023-01-02T10:49:04.452Z,99645.30
2023-01-02T10:51:31.496Z,99647.91
2023-01-02T10:54:07.068Z,99644.08
2023-01-02T10:56:38.676Z,99643.70
2023-01-02T10:59:23.785Z,99639.10
2023-01-02T11:01:59.034Z,99634.73
2023-01-02T11:04:30.350Z,99639.34
2023-01-02T11:07:01.849Z,99638.19
2023-01-02T11:09:29.670Z,99635.02
2023-01-02T11:11:57.295Z,99632.27
2023-01-02T11:14:28.415Z,99638.05
2023-01-02T11:17:01.858Z,99637.10
2023-01-02T11:19:29.993Z,99639.33
2023-01-02T11:21:57.311Z,99633.40
2023-01-02T11:24:27.312Z,99634.08
2023-01-02T11:26:54.394Z,99643.08
2023-01-02T11:29:32.189Z,99643.36
2023-01-02T11:33:13.874Z,99647.69
2023-01-02T11:35:49.254Z,99647.09
2023-01-02T11:38:28.767Z,99643.15
2023-01-02T11:41:02.042Z,99636.19
2023-01-02T11:43:52.266Z,99626.23
2023-01-02T11:46:25.413Z,99619.28
2023-01-02T11:48:54.007Z,99616.55
2023-01-02T11:51:21.051Z,99610.59
2023-01-02T11:53:48.149Z,99603.70
2023-01-02T11:56:29.381Z,99595.89
2023-01-02T11:59:02.118Z,99590.65
2023-01-02T12:01:52.233Z,99589.44
2023-01-02T12:04:19.411Z,99587.27
2023-01-02T12:07:15.455Z,99582.89
2023-01-02T12:10:00.445Z,99584.16
2023-01-02T12:12:34.346Z,99581.82
2023-01-02T12:15:18.756Z,99578.86
2023-01-02T12:17:53.693Z,99579.70
2023-01-02T12:20:33.123Z,99575.52
2023-01-02T12:23:04.809Z,99575.52
2023-01-02T12:25:31.829Z,99571.34
2023-01-02T12:28:22.037Z,99570.23
2023-01-02T12:30:55.818Z,99573.03
2023-01-02T12:33:49.636Z,99574.83
2023-01-02T12:36:32.528Z,99571.93
2023-01-02T12:39:18.610Z,99574.46
2023-01-02T12:42:00.560Z,99569.53
2023-01-02T12:44:55.413Z,99569.89
2023-01-02T12:47:49.486Z,99569.13
2023-01-02T12:50:48.449Z,99570.48
2023-01-02T12:53:36.457Z,99574.69
2023-01-02T12:56:19.137Z,99573.34
2023-01-02T12:59:08.305Z,99570.17
2023-01-02T13:01:37.413Z,99566.15
2023-01-02T13:04:36.604Z,99569.23
2023-01-02T13:07:09.628Z,99570.45
2023-01-02T13:09:41.357Z,99566.73
2023-01-02T13:12:17.642Z,99565.80
2023-01-02T13:14:47.478Z,99561.47
2023-01-02T13:17:14.604Z,99560.52
2023-01-02T13:19:50.104Z,99559.08
2023-01-02T13:22:38.589Z,99557.77
2023-01-02T13:25:06.454Z,99555.02
2023-01-02T13:27:33.476Z,99548.31
2023-01-02T13:30:01.801Z,99541.83
2023-01-02T13:32:29.620Z,99539.03
2023-01-02T13:34:57.082Z,99547.44
2023-01-02T13:37:25.988Z,99542.79
2023-01-02T13:40:02.877Z,99540.04
2023-01-02T13:42:51.294Z,99537.10
2023-01-02T13:45:23.898Z,99540.11
2023-01-02T13:47:56.713Z,99546.15
2023-01-02T13:50:33.950Z,99548.84
2023-01-02T13:53:10.217Z,99550.65
2023-01-02T13:55:40.752Z,99552.59
2023-01-02T13:58:18.469Z,99555.05
2023-01-02T14:00:53.538Z,99554.83
2023-01-02T14:03:21.428Z,99558.09
2023-01-02T14:06:30.770Z,99556.98
2023-01-02T14:09:17.531Z,99551.13
2023-01-02T14:11:56.700Z,99552.10
2023-01-02T14:14:37.603Z,99547.64
2023-01-02T14:17:14.687Z,99547.75
2023-01-02T14:19:41.838Z,99549.58
2023-01-02T14:22:16.816Z,99553.16
2023-01-02T14:24:53.120Z,99557.10
2023-01-02T14:27:24.370Z,99554.16
2023-01-02T14:29:53.890Z,99554.73
2023-01-02T14:32:39.579Z,99553.61
2023-01-02T14:35:31.002Z,99553.33
2023-01-02T14:38:17.713Z,99555.22
2023-01-02T14:40:46.707Z,99548.32
2023-01-02T14:43:34.222Z,99549.02
2023-01-02T14:46:04.387Z,99547.89
2023-01-02T14:48:40.070Z,99546.83
2023-01-02T14:51:10.003Z,99545.09
2023-01-02T14:53:40.522Z,99546.45
2023-01-02T14:56:15.882Z,99550.75
2023-01-02T14:58:49.964Z,99550.14
2023-01-02T15:01:42.921Z,99543.71
2023-01-02T15:04:23.490Z,99541.63
2023-01-02T15:07:30.880Z,99539.10
2023-01-02T15:10:17.794Z,99533.64
2023-01-02T15:13:04.233Z,99538.73
2023-01-02T15:15:36.382Z,99534.17
2023-01-02T15:18:16.934Z,99534.67
2023-01-02T15:20:43.916Z,99539.45
2023-01-02T15:23:17.992Z,99543.11
2023-01-02T15:25:45.047Z,99546.61
2023-01-02T15:28:44.635Z,99544.71
2023-01-02T15:31:13.432Z,99542.49
2023-01-02T15:33:40.881Z,99538.23
2023-01-02T15:36:17.455Z,99537.80
2023-01-02T15:38:44.541Z,99538.45
2023-01-02T15:41:18.457Z,99541.23
2023-01-02T15:44:04.505Z,99542.88
2023-01-02T15:46:31.604Z,99545.71
2023-01-02T15:48:59.524Z,99543.20
2023-01-02T15:51:40.376Z,99542.92
2023-01-02T15:54:13.448Z,99534.51
2023-01-02T15:56:41.958Z,99528.06
2023-01-02T15:59:25.704Z,99530.87
2023-01-02T16:01:52.678Z,99523.04
2023-01-02T16:04:30.963Z,99521.63
2023-01-02T16:06:59.330Z,99514.11
2023-01-02T16:09:31.335Z,99513.73
2023-01-02T16:12:00.499Z,99519.80
2023-01-02T16:14:33.798Z,99521.84
2023-01-02T16:17:05.752Z,99520.01
2023-01-02T16:19:48.082Z,99518.58
2023-01-02T16:22:24.506Z,99516.49
2023-01-02T16:25:18.504Z,99512.09
2023-01-02T16:28:04.287Z,99508.10
2023-01-02T16:30:51.403Z,99508.45
2023-01-02T16:33:32.075Z,99504.17
2023-01-02T16:36:05.267Z,99505.96
2023-01-02T16:38:45.023Z,99510.35
2023-01-02T16:41:41.340Z,99506.41
2023-01-02T16:44:14.303Z,99503.90
2023-01-02T16:46:42.228Z,99504.45
2023-01-02T16:49:12.116Z,99497.58
2023-01-02T16:51:43.048Z,99495.89
2023-01-02T16:54:13.916Z,99490.44
2023-01-02T16:56:40.880Z,99485.88
2023-01-02T16:59:07.998Z,99483.50
2023-01-02T17:01:36.102Z,99481.11
2023-01-02T17:04:03.921Z,99482.15
2023-01-02T17:06:32.199Z,99488.27
2023-01-02T17:08:59.355Z,99480.29
2023-01-02T17:11:26.627Z,99480.44
2023-01-02T17:13:54.775Z,99484.54
2023-01-02T17:16:21.946Z,99485.70
2023-01-02T17:18:50.294Z,99490.28
2023-01-02T17:21:19.506Z,99492.35
2023-01-02T17:23:46.855Z,99490.95
2023-01-02T17:26:15.461Z,99487.97
2023-01-02T17:28:43.999Z,99486.05
2023-01-02T17:31:14.493Z,99487.39
2023-01-02T17:33:41.694Z,99478.55
2023-01-02T17:36:09.302Z,99477.05
2023-01-02T17:38:36.605Z,99479.54
2023-01-02T17:41:03.655Z,99472.14
2023-01-02T17:43:32.859Z,99467.27
2023-01-02T17:46:38.792Z,99468.16
2023-01-02T17:48:55.209Z,99462.67
2023-01-02T17:51:22.869Z,99461.62
2023-01-02T17:53:53.089Z,99458.38
2023-01-02T17:56:22.768Z,99461.01
2023-01-02T17:58:51.206Z,99459.49
2023-01-02T18:01:21.752Z,99453.61
2023-01-02T18:03:49.067Z,99450.85
2023-01-02T18:06:16.241Z,99447.86
2023-01-02T18:08:43.373Z,99451.98
2023-01-02T18:11:12.824Z,99447.92
2023-01-02T18:13:54.148Z,99447.70
2023-01-02T18:16:27.190Z,99440.42
2023-01-02T18:18:56.032Z,99436.67
2023-01-02T18:21:24.312Z,99433.48
2023-01-02T18:23:54.884Z,99434.76
2023-01-02T18:26:22.381Z,99433.08
2023-01-02T18:28:51.487Z,99427.18
2023-01-02T18:31:23.761Z,99427.52
2023-01-02T18:33:52.130Z,99429.25
2023-01-02T18:36:21.894Z,99430.86
2023-01-02T18:38:53.534Z,99427.31
2023-01-02T18:41:25.766Z,99427.86
2023-01-02T18:43:59.760Z,99425.36
2023-01-02T18:47:03.518Z,99419.48
2023-01-02T18:49:37.698Z,99417.78
2023-01-02T18:52:10.893Z,99414.10
2023-01-02T18:54:41.505Z,99411.17
2023-01-02T18:57:14.375Z,99408.99
2023-01-02T18:59:43.710Z,99405.98
2023-01-02T19:02:37.066Z,99406.98
2023-01-02T19:05:26.286Z,99405.67
2023-01-02T19:08:02.423Z,99401.52
2023-01-02T19:10:37.056Z,99401.08
2023-01-02T19:13:19.551Z,99397.19
2023-01-02T19:16:02.882Z,99400.69
2023-01-02T19:18:40.581Z,99400.90
2023-01-02T19:21:33.625Z,99400.27
2023-01-02T19:24:19.022Z,99393.13
2023-01-02T19:26:50.852Z,99389.02
2023-01-02T19:29:20.179Z,99386.61
2023-01-02T19:31:52.629Z,99387.05
2023-01-02T19:34:41.583Z,99385.34
2023-01-02T19:37:11.745Z,99388.36
2023-01-02T19:39:47.687Z,99389.13
2023-01-02T19:42:21.057Z,99391.13
2023-01-02T19:44:50.362Z,99391.42
2023-01-02T19:47:18.023Z,99390.89
2023-01-02T19:49:45.271Z,99392.52
2023-01-02T19:52:12.760Z,99393.98
2023-01-02T19:54:43.567Z,99395.01
2023-01-02T19:57:12.264Z,99398.36
2023-01-02T19:59:43.757Z,99399.17
2023-01-02T20:02:12.068Z,99393.34
2023-01-02T20:04:40.559Z,99394.22
2023-01-02T20:07:08.017Z,99391.73
2023-01-02T20:09:35.067Z,99387.50
2023-01-02T20:12:20.961Z,99386.55
2023-01-02T20:14:48.004Z,99388.84
2023-01-02T20:17:16.597Z,99388.88
2023-01-02T20:19:43.741Z,99386.27
2023-01-02T20:22:11.436Z,99382.58
2023-01-02T20:24:38.647Z,99383.38
2023-01-02T20:27:05.694Z,99382.98
2023-01-02T20:29:33.152Z,99385.14
2023-01-02T20:32:00.302Z,99380.70
2023-01-02T20:34:27.246Z,99379.84
2023-01-02T20:36:54.287Z,99376.67
2023-01-02T20:39:21.201Z,99373.89
2023-01-02T20:41:48.178Z,99371.26
2023-01-02T20:44:15.448Z,99366.59
2023-01-02T20:46:42.945Z,99365.63
2023-01-02T20:49:10.243Z,99369.14
2023-01-02T20:51:37.440Z,99363.65
2023-01-02T20:54:04.852Z,99363.34
2023-01-02T20:56:32.410Z,99359.84
2023-01-02T20:58:59.333Z,99354.63
2023-01-02T21:01:26.695Z,99355.08
2023-01-02T21:03:54.036Z,99356.70
2023-01-02T21:06:21.221Z,99356.05
2023-01-02T21:08:48.365Z,99356.16
2023-01-02T21:11:15.415Z,99350.02
2023-01-02T21:13:42.280Z,99350.32
2023-01-02T21:16:09.232Z,99353.59
2023-01-02T21:18:38.596Z,99355.83
2023-01-02T21:21:11.505Z,99353.67
2023-01-02T21:23:39.611Z,99348.73
2023-01-02T21:26:07.655Z,99337.88
2023-01-02T21:28:34.981Z,99334.86
2023-01-02T21:31:02.471Z,99330.89
2023-01-02T21:33:29.805Z,99327.80
2023-01-02T21:35:58.765Z,99326.85
2023-01-02T21:38:26.968Z,99331.74
2023-01-02T21:40:54.727Z,99333.30
2023-01-02T21:43:22.410Z,99333.55
2023-01-02T21:45:50.162Z,99328.97
2023-01-02T21:48:17.049Z,99327.08
2023-01-02T21:50:44.035Z,99319.81
2023-01-02T21:53:11.268Z,99318.60
2023-01-02T21:55:38.163Z,99313.41
2023-01-02T21:58:13.753Z,99308.76
2023-01-02T22:00:41.300Z,99309.19
2023-01-02T22:03:08.601Z,99301.79
2023-01-02T22:05:35.744Z,99302.80
2023-01-02T22:08:02.743Z,99308.31
2023-01-02T22:10:29.739Z,99306.93
2023-01-02T22:12:56.649Z,99307.31
2023-01-02T22:15:24.270Z,99308.64
2023-01-02T22:17:51.280Z,99305.16
2023-01-02T22:20:18.281Z,99306.31
2023-01-02T22:22:45.176Z,99304.86
2023-01-02T22:25:12.119Z,99304.78
2023-01-02T22:27:39.171Z,99302.05
2023-01-02T22:30:21.566Z,99299.98
2023-01-02T22:32:51.589Z,99292.13
2023-01-02T22:35:18.813Z,99289.06
2023-01-02T22:37:45.993Z,99283.95
2023-01-02T22:40:13.377Z,99285.35
2023-01-02T22:43:04.926Z,99282.38
2023-01-02T22:45:47.693Z,99284.31
2023-01-02T22:48:17.901Z,99283.52
2023-01-02T22:50:45.788Z,99282.62
2023-01-02T22:53:27.495Z,99279.08
2023-01-02T22:55:54.717Z,99274.13
2023-01-02T22:58:22.270Z,99268.84
2023-01-02T23:00:55.491Z,99267.60
2023-01-02T23:03:22.517Z,99262.16
2023-01-02T23:05:49.456Z,99264.40
2023-01-02T23:08:16.460Z,99268.38
2023-01-02T23:10:43.555Z,99268.09
2023-01-02T23:13:10.592Z,99268.77
2023-01-02T23:15:59.037Z,99265.65
2023-01-02T23:18:45.040Z,99262.93
2023-01-02T23:21:11.994Z,99265.47
2023-01-02T23:23:38.928Z,99270.02
2023-01-02T23:26:06.327Z,99270.70
2023-01-02T23:29:05.174Z,99275.89
2023-01-02T23:31:21.280Z,99267.02
2023-01-02T23:33:48.233Z,99264.00
2023-01-02T23:36:16.936Z,99258.29
2023-01-02T23:38:44.347Z,99258.80
2023-01-02T23:41:11.404Z,99255.59
2023-01-02T23:43:38.463Z,99256.92
2023-01-02T23:46:05.610Z,99255.42
2023-01-02T23:48:32.548Z,99251.96
2023-01-02T23:51:01.014Z,99248.02
2023-01-02T23:53:28.154Z,99243.02
2023-01-02T23:55:55.751Z,99238.66
2023-01-02T23:58:22.774Z,99238.59
